Time;durP1;ratioP1;P1;durP2;ratioP2;P2;SDS_P1;SDS_P2;PMS_P1;PMS_P2;Temp;Humidity;BMP_temperature;BMP_pressure;BME280_temperature;BME280_humidity;BME280_pressure;Samples;Min_cycle;Max_cycle;Signal;HPM_P1;HPM_P2
2022/03/28 00:06:55;;;;;;;129.80;53.20;;;;;;;1.72;49.94;99535.49;432251;1272;108779;-42
2022/03/28 00:17:03;;;;;;;130.90;50.50;;;;;;;1.62;50.05;99523.35;432231;1272;98223;-44
2022/03/28 00:27:09;;;;;;;115.40;45.20;;;;;;;1.56;49.98;99517.38;432175;1274;112410;-41
2022/03/28 00:37:16;;;;;;;107.20;44.40;;;;;;;1.59;49.79;99503.24;432071;1274;108868;-42
2022/03/28 00:47:24;;;;;;;106.40;41.80;;;;;;;1.64;50.00;99494.66;432279;1273;99316;-42
2022/03/28 00:57:32;;;;;;;94.40;39.60;;;;;;;1.68;49.99;99484.92;432004;1274;111440;-41
2022/03/28 01:07:38;;;;;;;81.50;35.40;;;;;;;1.69;50.06;99468.84;433544;1261;107757;-43
2022/03/28 01:28:12;;;;;;;66.00;29.50;;;;;;;2.04;49.71;99444.59;433322;1269;112561;-43
2022/03/28 01:38:20;;;;;;;69.30;27.10;;;;;;;2.25;49.30;99432.88;433044;1270;108849;-43
2022/03/28 01:48:27;;;;;;;52.40;24.80;;;;;;;2.42;49.02;99427.62;433215;1270;99273;-43
2022/03/28 01:58:34;;;;;;;49.70;21.70;;;;;;;2.57;48.65;99411.52;432476;1270;112497;-43
2022/03/28 02:08:41;;;;;;;53.60;21.90;;;;;;;2.78;48.31;99401.83;433266;1269;109544;-43
2022/03/28 02:18:49;;;;;;;44.70;20.60;;;;;;;2.99;47.90;99387.66;433088;1270;99939;-42
2022/03/28 02:28:56;;;;;;;43.90;18.80;;;;;;;3.15;47.41;99378.70;432982;1270;112448;-42
2022/03/28 02:39:03;;;;;;;49.20;17.80;;;;;;;3.21;47.11;99367.75;433155;1270;107510;-44
2022/03/28 02:49:10;;;;;;;39.50;17.60;;;;;;;3.17;46.88;99355.17;433294;1270;98077;-42
2022/03/28 02:59:17;;;;;;;35.60;16.20;;;;;;;3.01;46.83;99346.42;433186;1270;112071;-42
2022/03/28 03:09:25;;;;;;;41.40;17.40;;;;;;;2.88;46.65;99343.30;433123;1270;108870;-41
2022/03/28 03:19:32;;;;;;;44.90;19.40;;;;;;;2.81;46.84;99331.45;433137;1270;99448;-42
2022/03/28 03:29:39;;;;;;;43.20;18.10;;;;;;;2.79;46.71;99321.79;432988;1270;112441;-42
2022/03/28 03:39:46;;;;;;;46.80;19.70;;;;;;;2.68;47.16;99312.99;432667;1270;108639;-42
2022/03/28 03:49:54;;;;;;;47.10;19.90;;;;;;;2.62;46.90;99311.55;433174;1270;99277;-41
2022/03/28 04:00:01;;;;;;;46.90;19.20;;;;;;;2.55;47.20;99310.10;433153;1270;112504;-42
2022/03/28 04:10:10;;;;;;;45.70;21.30;;;;;;;2.46;47.53;99308.89;433180;1270;108839;-43
2022/03/28 04:30:26;;;;;;;49.90;21.20;;;;;;;2.39;47.59;99315.54;433285;1270;108918;-41
2022/03/28 04:40:35;;;;;;;59.00;24.10;;;;;;;2.29;47.88;99309.43;432753;1270;99273;-42
2022/03/28 04:50:42;;;;;;;62.60;23.80;;;;;;;2.24;48.19;99308.06;433210;1270;111654;-41
2022/03/28 05:00:48;;;;;;;65.40;28.00;;;;;;;2.29;48.53;99304.73;433141;1270;108688;-41
2022/03/28 05:10:56;;;;;;;57.00;24.50;;;;;;;2.40;48.34;99302.02;432927;1269;99260;-40
2022/03/28 05:21:03;;;;;;;53.40;23.80;;;;;;;2.73;48.73;99304.52;432935;1269;111207;-45
2022/03/28 05:31:10;;;;;;;72.10;24.60;;;;;;;3.57;49.00;99302.94;432357;1270;108890;-42
2022/03/28 05:41:17;;;;;;;43.80;20.10;;;;;;;5.23;48.80;99299.34;433059;1270;99254;-42
2022/03/28 05:51:24;;;;;;;56.90;23.20;;;;;;;6.67;48.12;99288.50;432691;1270;113072;-45
2022/03/28 06:11:37;;;;;;;40.00;18.80;;;;;;;8.83;46.30;99260.29;432442;1271;98016;-42
2022/03/28 06:21:44;;;;;;;37.50;18.20;;;;;;;9.86;45.30;99251.96;432382;1271;112947;-44
2022/03/28 06:31:51;;;;;;;31.80;17.60;;;;;;;11.05;44.91;99246.28;432171;1272;108885;-42
2022/03/28 06:41:59;;;;;;;32.10;16.50;;;;;;;12.02;43.90;99233.59;432177;1272;99849;-42
2022/03/28 06:52:05;;;;;;;38.30;16.90;;;;;;;12.77;42.66;99218.67;432246;1272;112539;-41
2022/03/28 07:02:12;;;;;;;29.00;15.20;;;;;;;13.43;41.89;99209.61;432390;1271;107713;-45
2022/03/28 07:12:17;;;;;;;23.40;13.20;;;;;;;13.72;41.14;99203.51;432582;1270;99293;-42
2022/03/28 07:22:25;;;;;;;25.50;12.20;;;;;;;14.52;40.30;99192.60;433049;1269;108944;-43
2022/03/28 07:32:32;;;;;;;17.90;11.00;;;;;;;15.23;40.03;99181.21;432933;1270;99308;-42
2022/03/28 07:52:50;;;;;;;23.80;10.50;;;;;;;14.60;38.05;99162.83;433188;1270;108571;-43
2022/03/28 08:02:57;;;;;;;17.50;11.60;;;;;;;14.89;38.08;99150.86;433195;1270;99253;-41
2022/03/28 08:13:05;;;;;;;14.60;9.90;;;;;;;15.24;38.28;99146.31;432481;1270;109239;-42
2022/03/28 08:23:14;;;;;;;29.50;12.70;;;;;;;15.70;38.20;99126.73;432947;1270;98902;-41
2022/03/28 08:33:21;;;;;;;19.80;10.30;;;;;;;16.02;37.84;99119.69;433098;1270;112272;-42
2022/03/28 08:43:29;;;;;;;17.10;10.30;;;;;;;16.00;37.11;99105.87;432893;1270;107749;-41
2022/03/28 09:03:47;;;;;;;20.10;11.10;;;;;;;16.34;36.28;99082.99;433053;1269;108689;-42
2022/03/28 09:24:04;;;;;;;17.70;11.00;;;;;;;16.31;35.61;99063.65;433088;1269;112467;-41
2022/03/28 09:34:09;;;;;;;18.30;11.50;;;;;;;16.45;35.28;99049.80;432952;1270;108809;-41
2022/03/28 10:04:31;;;;;;;20.50;10.20;;;;;;;17.37;34.52;98997.11;433076;1271;99289;-41
2022/03/28 10:14:39;;;;;;;15.70;10.10;;;;;;;17.63;34.28;98976.35;433102;1270;112441;-41
2022/03/28 10:24:46;;;;;;;16.50;9.60;;;;;;;17.74;33.85;98967.27;433289;1269;108463;-44
2022/03/28 10:45:04;;;;;;;14.00;7.90;;;;;;;18.13;33.49;98953.06;433159;1271;108887;-40
2022/03/28 10:55:12;;;;;;;16.00;8.10;;;;;;;18.36;33.11;98928.38;433161;1270;98870;-41
2022/03/28 11:05:20;;;;;;;13.60;8.20;;;;;;;18.48;32.08;98911.84;433105;1271;112828;-42
2022/03/28 11:15:27;;;;;;;12.20;8.10;;;;;;;18.41;31.77;98895.20;433260;1270;109130;-39
2022/03/28 11:25:46;;;;;;;10.80;7.20;;;;;;;18.43;31.87;98873.99;433262;1271;99286;-42
2022/03/28 11:35:52;;;;;;;11.50;7.70;;;;;;;18.43;31.19;98860.02;433125;1271;109148;-43
2022/03/28 11:46:00;;;;;;;8.70;6.50;;;;;;;18.64;31.77;98837.28;432995;1271;98824;-43
2022/03/28 11:56:07;;;;;;;14.50;8.00;;;;;;;18.74;31.60;98821.70;433008;1271;113142;-42
2022/03/28 12:06:25;;;;;;;13.10;7.90;;;;;;;18.86;31.65;98805.27;433229;1271;108854;-43
2022/03/28 12:16:31;;;;;;;10.80;7.00;;;;;;;18.81;31.75;98788.96;433128;1271;99267;-40
2022/03/28 12:26:42;;;;;;;15.60;9.00;;;;;;;18.68;31.27;98765.77;432427;1270;108361;-41
2022/03/28 12:36:49;;;;;;;18.20;9.60;;;;;;;18.48;31.07;98745.90;432600;1270;99313;-41
2022/03/28 12:47:02;;;;;;;15.90;7.50;;;;;;;18.49;31.38;98723.60;432472;1270;112461;-41
2022/03/28 12:57:09;;;;;;;13.60;7.70;;;;;;;18.46;31.56;98707.34;433198;1269;108967;-41
2022/03/28 13:07:17;;;;;;;12.70;6.50;;;;;;;18.54;31.54;98689.02;433020;1271;98071;-41
2022/03/28 13:17:24;;;;;;;19.20;7.30;;;;;;;18.41;31.35;98668.61;432738;1271;107917;-41
2022/03/28 13:48:05;;;;;;;7.80;6.10;;;;;;;18.43;31.89;98610.73;432681;1269;108821;-43
2022/03/28 13:58:14;;;;;;;7.70;5.50;;;;;;;18.46;32.46;98593.13;432693;1271;99238;-42
2022/03/28 14:08:22;;;;;;;7.60;5.80;;;;;;;18.43;32.09;98570.55;432607;1269;108784;-42
2022/03/28 14:18:30;;;;;;;19.20;4.50;;;;;;;18.27;31.74;98560.84;432565;1271;99250;-42
2022/03/28 14:28:37;;;;;;;7.30;4.60;;;;;;;18.17;31.61;98545.95;432648;1269;112610;-42
2022/03/28 14:38:44;;;;;;;47.30;5.20;;;;;;;18.09;31.14;98530.66;432644;1270;108868;-43
2022/03/28 14:48:51;;;;;;;5.30;4.00;;;;;;;18.00;31.39;98518.91;432401;1271;98101;-41
2022/03/28 14:58:56;;;;;;;6.60;4.40;;;;;;;18.00;31.38;98507.58;432796;1269;108881;-42
2022/03/28 15:09:03;;;;;;;6.30;4.40;;;;;;;17.87;31.36;98493.45;432613;1271;98831;-43
2022/03/28 15:19:11;;;;;;;8.60;4.30;;;;;;;17.80;31.56;98489.07;432417;1270;112592;-41
2022/03/28 15:29:18;;;;;;;8.90;4.80;;;;;;;17.64;31.09;98485.78;432508;1270;106251;-43
2022/03/28 15:39:24;;;;;;;10.90;4.80;;;;;;;17.50;31.41;98476.63;432700;1270;99273;-42
2022/03/28 15:49:31;;;;;;;12.40;7.70;;;;;;;17.33;31.62;98468.88;432586;1270;106408;-45
2022/03/28 15:59:38;;;;;;;10.20;6.10;;;;;;;17.14;31.75;98448.91;432844;1271;99273;-43
2022/03/28 16:09:46;;;;;;;13.20;5.80;;;;;;;16.90;32.21;98433.55;432708;1271;113200;-44
2022/03/28 16:19:52;;;;;;;12.70;6.60;;;;;;;16.69;32.44;98426.96;432421;1271;108784;-42
2022/03/28 16:29:59;;;;;;;21.80;6.50;;;;;;;16.55;32.86;98416.28;432888;1269;99359;-42
2022/03/28 16:40:08;;;;;;;10.60;6.00;;;;;;;16.29;33.14;98407.67;432743;1270;109616;-42
2022/03/28 16:50:15;;;;;;;29.00;9.00;;;;;;;15.99;33.69;98397.23;432779;1270;98847;-43
2022/03/28 17:20:38;;;;;;;27.20;11.70;;;;;;;14.85;35.19;98376.06;432695;1270;99264;-43
2022/03/28 17:30:46;;;;;;;22.70;10.30;;;;;;;14.43;35.62;98368.69;432666;1270;108732;-43
2022/03/28 17:40:54;;;;;;;60.70;16.30;;;;;;;14.03;36.16;98359.83;432597;1269;98985;-42
2022/03/28 17:51:01;;;;;;;44.30;25.20;;;;;;;13.59;36.62;98357.39;432644;1269;112643;-44
2022/03/28 18:01:10;;;;;;;49.90;30.20;;;;;;;13.21;37.27;98350.98;432510;1270;108775;-41
2022/03/28 18:11:18;;;;;;;56.50;27.50;;;;;;;12.79;37.69;98342.58;432623;1270;98877;-42
2022/03/28 18:21:24;;;;;;;131.30;58.30;;;;;;;12.50;38.20;98332.77;432402;1271;108861;-42
2022/03/28 18:31:32;;;;;;;133.10;64.30;;;;;;;12.25;38.88;98331.02;432404;1271;99248;-40
2022/03/28 18:41:38;;;;;;;120.10;58.90;;;;;;;11.98;39.42;98332.80;432297;1271;112294;-43
2022/03/28 18:51:50;;;;;;;95.20;46.80;;;;;;;11.64;39.89;98329.04;432545;1268;109036;-42
2022/03/28 19:12:05;;;;;;;33.80;18.80;;;;;;;11.30;41.03;98320.62;433185;1270;107732;-42
2022/03/28 19:22:11;;;;;;;38.30;20.20;;;;;;;11.29;41.56;98312.73;432994;1270;99258;-40
2022/03/28 19:32:20;;;;;;;34.70;19.90;;;;;;;11.21;41.82;98309.65;432945;1270;112362;-42
2022/03/28 19:42:27;;;;;;;30.30;18.20;;;;;;;11.15;42.42;98305.44;432888;1270;108114;-41
2022/03/28 20:02:41;;;;;;;34.50;17.60;;;;;;;11.19;43.22;98282.15;433188;1269;109123;-43
2022/03/28 20:12:48;;;;;;;33.20;17.80;;;;;;;11.14;43.55;98268.05;432363;1270;99254;-42
2022/03/28 20:22:56;;;;;;;33.40;17.60;;;;;;;10.99;43.96;98256.92;433092;1271;112599;-42
2022/03/28 20:33:04;;;;;;;30.10;17.10;;;;;;;10.82;44.28;98248.76;432889;1270;108851;-43
2022/03/28 20:43:11;;;;;;;38.40;18.20;;;;;;;10.59;44.76;98244.52;432994;1270;99347;-43
2022/03/28 20:53:18;;;;;;;44.70;22.20;;;;;;;10.25;45.22;98233.45;433038;1270;108879;-43
2022/03/28 21:03:24;;;;;;;45.00;22.60;;;;;;;9.99;45.73;98226.04;433157;1270;99288;-42
2022/03/28 21:13:33;;;;;;;48.90;22.00;;;;;;;9.81;46.27;98217.66;432891;1270;341515;-43
2022/03/28 21:23:40;;;;;;;35.40;20.10;;;;;;;9.68;46.83;98207.58;433173;1269;108729;-42
2022/03/28 21:33:47;;;;;;;36.60;19.00;;;;;;;9.60;47.35;98206.20;432395;1270;99244;-41
2022/03/28 21:43:54;;;;;;;34.10;19.50;;;;;;;9.56;47.96;98194.71;432376;1270;112853;-41
2022/03/28 21:54:01;;;;;;;33.10;20.60;;;;;;;9.50;48.23;98185.00;432957;1269;107990;-41
2022/03/28 22:04:07;;;;;;;38.70;21.60;;;;;;;9.39;48.67;98178.70;433064;1270;99257;-43
2022/03/28 22:14:19;;;;;;;40.10;21.10;;;;;;;9.31;49.07;98160.80;432544;1270;99329;-42
2022/03/28 22:24:26;;;;;;;51.80;24.40;;;;;;;9.23;49.45;98139.95;432172;1270;112364;-45
2022/03/28 22:34:33;;;;;;;43.40;23.60;;;;;;;9.13;49.90;98123.73;432849;1271;108807;-41
2022/03/28 22:44:40;;;;;;;40.30;21.80;;;;;;;9.08;50.19;98115.27;432462;1270;99844;-43
2022/03/28 22:54:47;;;;;;;38.60;21.80;;;;;;;8.98;50.49;98117.60;432805;1269;112505;-42
2022/03/28 23:04:55;;;;;;;34.70;19.50;;;;;;;8.94;50.86;98127.20;432973;1269;109043;-43
2022/03/28 23:15:04;;;;;;;38.00;19.80;;;;;;;8.88;51.17;98129.03;433153;1269;99369;-41
2022/03/28 23:25:12;;;;;;;39.60;20.00;;;;;;;8.86;51.34;98114.06;432584;1269;99208;-41
2022/03/28 23:35:19;;;;;;;33.10;20.30;;;;;;;8.78;51.68;98096.48;432794;1270;108751;-42
2022/03/28 23:45:27;;;;;;;37.90;21.80;;;;;;;8.62;52.02;98082.08;433105;1269;99191;-46
2022/03/28 23:55:34;;;;;;;31.50;20.30;;;;;;;8.67;52.79;98070.20;433192;1269;112379;-45
